createdAt,value
2022-11-03T00:01:37.035Z,18.27
2022-11-03T00:06:20.896Z,18.25
2022-11-03T00:11:04.060Z,18.21
2022-11-03T00:15:47.238Z,18.16
2022-11-03T00:20:30.392Z,18.1
2022-11-03T00:25:13.535Z,18.1
2022-11-03T00:29:56.722Z,18.09
2022-11-03T00:34:39.892Z,18.04
2022-11-03T00:39:23.073Z,18
2022-11-03T00:44:06.243Z,17.95
2022-11-03T00:48:49.405Z,17.91
2022-11-03T00:53:32.727Z,17.87
2022-11-03T00:58:15.862Z,17.76
2022-11-03T01:02:59.138Z,17.67
2022-11-03T01:07:42.311Z,17.6
2022-11-03T01:12:25.522Z,17.59
2022-11-03T01:17:08.654Z,17.5
2022-11-03T01:21:51.804Z,17.41
2022-11-03T01:26:35.116Z,17.33
2022-11-03T01:31:18.264Z,17.27
2022-11-03T01:36:01.421Z,17.21
2022-11-03T01:40:44.617Z,17.15
2022-11-03T01:45:27.741Z,17.11
2022-11-03T01:50:10.824Z,17.1
2022-11-03T01:59:36.032Z,17.05
2022-11-03T02:04:19.032Z,17.03
2022-11-03T02:09:01.992Z,17.02
2022-11-03T02:13:44.895Z,17
2022-11-03T02:18:27.812Z,16.96
2022-11-03T02:23:10.768Z,16.91
2022-11-03T02:27:53.720Z,16.89
2022-11-03T02:32:36.666Z,16.85
2022-11-03T02:37:19.604Z,16.84
2022-11-03T02:42:02.546Z,16.83
2022-11-03T02:46:45.486Z,16.81
2022-11-03T02:51:28.421Z,16.78
2022-11-03T02:56:11.355Z,16.74
2022-11-03T03:00:54.302Z,16.74
2022-11-03T03:05:37.494Z,16.69
2022-11-03T03:10:20.415Z,16.64
2022-11-03T03:15:03.348Z,16.66
2022-11-03T03:19:46.281Z,16.63
2022-11-03T03:24:29.200Z,16.64
2022-11-03T03:29:12.071Z,16.63
2022-11-03T03:33:59.707Z,16.59
2022-11-03T03:39:16.635Z,16.54
2022-11-03T03:43:59.577Z,16.56
2022-11-03T03:48:42.498Z,16.53
2022-11-03T03:53:25.422Z,16.53
2022-11-03T03:58:08.734Z,16.5
2022-11-03T04:02:52.344Z,16.49
2022-11-03T04:07:39.132Z,16.46
2022-11-03T04:12:25.954Z,16.43
2022-11-03T04:17:08.887Z,16.42
2022-11-03T04:21:51.782Z,16.43
2022-11-03T04:26:34.672Z,16.4
2022-11-03T04:31:17.541Z,16.39
2022-11-03T04:36:00.482Z,16.33
2022-11-03T04:40:43.395Z,16.31
2022-11-03T04:45:30.202Z,16.31
2022-11-03T04:50:13.130Z,16.35
2022-11-03T04:54:56.040Z,16.35
2022-11-03T04:59:38.974Z,16.36
2022-11-03T05:04:21.930Z,16.36
2022-11-03T05:09:04.834Z,16.32
2022-11-03T05:13:47.763Z,16.29
2022-11-03T05:18:30.698Z,16.25
2022-11-03T05:23:13.628Z,16.23
2022-11-03T05:27:56.560Z,16.21
2022-11-03T05:32:39.488Z,16.2
2022-11-03T05:37:26.302Z,16.18
2022-11-03T05:42:09.823Z,16.11
2022-11-03T05:46:52.789Z,16.11
2022-11-03T05:51:35.740Z,16.13
2022-11-03T05:56:18.690Z,16.1
2022-11-03T06:01:01.637Z,16.11
2022-11-03T06:05:44.597Z,16.2
2022-11-03T06:10:27.491Z,16.22
2022-11-03T06:15:10.407Z,16.23
2022-11-03T06:19:53.345Z,16.2
2022-11-03T06:24:36.270Z,16.45
2022-11-03T06:29:19.190Z,16.74
2022-11-03T06:34:02.121Z,17.11
2022-11-03T06:38:45.042Z,17.47
2022-11-03T06:43:27.979Z,17.8
2022-11-03T06:48:11.022Z,18.13
2022-11-03T06:52:53.981Z,18.38
2022-11-03T06:57:37.190Z,18.57
2022-11-03T07:02:20.262Z,18.75
2022-11-03T07:07:03.611Z,18.9
2022-11-03T07:11:46.541Z,19.06
2022-11-03T07:16:29.481Z,19.21
2022-11-03T07:21:12.416Z,19.37
2022-11-03T07:25:55.368Z,19.49
2022-11-03T07:30:38.411Z,19.61
2022-11-03T07:35:21.335Z,19.7
2022-11-03T07:40:04.278Z,19.79
2022-11-03T07:44:47.257Z,19.87
2022-11-03T07:49:30.171Z,19.97
2022-11-03T07:54:13.117Z,20.06
2022-11-03T07:58:56.063Z,20.15
2022-11-03T08:03:38.996Z,20.24
2022-11-03T08:08:21.925Z,20.31
2022-11-03T08:13:05.120Z,20.38
2022-11-03T08:17:53.506Z,20.43
2022-11-03T08:22:38.942Z,20.47
2022-11-03T08:27:46.047Z,20.53
2022-11-03T08:32:29.037Z,20.6
2022-11-03T08:37:12.059Z,20.65
2022-11-03T08:41:55.134Z,20.7
2022-11-03T08:46:38.103Z,20.74
2022-11-03T08:51:21.015Z,20.79
2022-11-03T08:56:03.978Z,20.85
2022-11-03T09:00:54.758Z,20.89
2022-11-03T09:05:37.691Z,20.94
2022-11-03T09:10:22.024Z,21
2022-11-03T09:15:14.562Z,21.05
2022-11-03T09:19:57.493Z,21.13
2022-11-03T09:24:40.437Z,21.22
2022-11-03T09:29:23.379Z,21.28
2022-11-03T09:34:06.298Z,21.33
2022-11-03T09:38:49.259Z,21.37
2022-11-03T09:43:32.279Z,21.4
2022-11-03T09:48:15.214Z,21.45
2022-11-03T09:52:58.161Z,21.47
2022-11-03T09:57:41.095Z,21.51
2022-11-03T10:02:24.048Z,21.55
2022-11-03T10:07:07.423Z,21.59
2022-11-03T10:11:50.376Z,21.62
2022-11-03T10:16:33.310Z,21.67
2022-11-03T10:21:16.270Z,21.72
2022-11-03T10:25:59.282Z,21.76
2022-11-03T10:30:57.862Z,21.82
2022-11-03T10:35:56.804Z,21.88
2022-11-03T10:40:47.621Z,21.94
2022-11-03T10:45:31.438Z,21.99
2022-11-03T10:50:14.365Z,22.06
2022-11-03T10:54:57.451Z,22.12
2022-11-03T10:59:40.405Z,22.18
2022-11-03T11:04:23.488Z,22.25
2022-11-03T11:09:06.709Z,22.3
2022-11-03T11:13:49.635Z,22.36
2022-11-03T11:18:32.595Z,22.41
2022-11-03T11:23:15.556Z,22.45
2022-11-03T11:27:58.801Z,22.5
2022-11-03T11:32:41.807Z,22.54
2022-11-03T11:37:24.842Z,22.58
2022-11-03T11:42:07.871Z,22.62
2022-11-03T11:46:51.249Z,22.66
2022-11-03T11:51:34.163Z,22.7
2022-11-03T11:56:17.140Z,22.72
2022-11-03T12:01:00.173Z,22.68
2022-11-03T12:05:43.152Z,22.67
2022-11-03T12:10:26.151Z,22.59
2022-11-03T12:15:09.079Z,22.32
2022-11-03T12:19:51.995Z,22.06
2022-11-03T12:24:34.904Z,21.77
2022-11-03T12:29:17.875Z,21.64
2022-11-03T12:34:00.865Z,21.54
2022-11-03T12:38:43.828Z,21.37
2022-11-03T12:43:26.780Z,21.23
2022-11-03T12:48:09.734Z,21.02
2022-11-03T12:52:52.687Z,20.93
2022-11-03T12:57:35.629Z,20.9
2022-11-03T13:02:18.725Z,20.91
2022-11-03T13:07:02.355Z,20.99
2022-11-03T13:11:45.253Z,21.03
2022-11-03T13:16:28.173Z,21.25
2022-11-03T13:21:11.089Z,21.44
2022-11-03T13:25:54.264Z,21.59
2022-11-03T13:30:37.544Z,21.67
2022-11-03T13:35:20.447Z,21.75
2022-11-03T13:40:03.413Z,21.78
2022-11-03T13:44:46.369Z,21.84
2022-11-03T13:49:59.775Z,21.89
2022-11-03T14:00:25.856Z,21.99
2022-11-03T14:05:11.418Z,22.07
2022-11-03T14:09:55.858Z,22.13
2022-11-03T14:14:45.833Z,22.16
2022-11-03T14:19:36.740Z,22.17
2022-11-03T14:24:33.323Z,22.2
2022-11-03T14:29:16.254Z,22.24
2022-11-03T14:33:59.216Z,22.26
2022-11-03T14:38:45.074Z,22.28
2022-11-03T14:43:35.073Z,22.29
2022-11-03T14:48:18.152Z,22.31
2022-11-03T14:53:01.091Z,22.32
2022-11-03T14:57:44.036Z,22.32
2022-11-03T15:02:29.521Z,22.34
2022-11-03T15:07:12.830Z,22.35
2022-11-03T15:11:55.738Z,22.36
2022-11-03T15:16:38.708Z,22.37
2022-11-03T15:21:21.697Z,22.36
2022-11-03T15:26:04.668Z,22.39
2022-11-03T15:30:47.609Z,22.4
2022-11-03T15:35:30.641Z,22.41
2022-11-03T15:40:13.782Z,22.42
2022-11-03T15:44:56.701Z,22.43
2022-11-03T15:49:39.693Z,22.44
2022-11-03T15:54:22.681Z,22.44
2022-11-03T15:59:05.619Z,22.45
2022-11-03T16:03:48.585Z,22.45
2022-11-03T16:08:31.517Z,22.46
2022-11-03T16:13:14.515Z,22.47
2022-11-03T16:17:57.385Z,22.49
2022-11-03T16:22:40.328Z,22.5
2022-11-03T16:27:23.470Z,22.53
2022-11-03T16:32:06.388Z,22.55
2022-11-03T16:36:49.316Z,22.56
2022-11-03T16:41:32.266Z,22.58
2022-11-03T16:46:15.201Z,22.6
2022-11-03T16:50:58.166Z,22.61
2022-11-03T16:55:41.152Z,22.6
2022-11-03T17:00:24.211Z,22.6
2022-11-03T17:05:07.252Z,22.62
2022-11-03T17:09:50.142Z,22.67
2022-11-03T17:14:33.091Z,22.67
2022-11-03T17:19:16.015Z,22.72
2022-11-03T17:23:59.018Z,22.74
2022-11-03T17:28:42.045Z,22.76
2022-11-03T17:33:24.990Z,22.73
2022-11-03T17:38:08.172Z,22.69
2022-11-03T17:42:51.968Z,22.25
2022-11-03T17:47:34.893Z,21.79
2022-11-03T17:52:19.045Z,21.38
2022-11-03T17:57:10.187Z,21.12
2022-11-03T18:01:53.237Z,20.93
2022-11-03T18:06:37.377Z,20.77
2022-11-03T18:11:20.414Z,20.61
2022-11-03T18:16:03.467Z,20.5
2022-11-03T18:20:50.330Z,20.41
2022-11-03T18:25:36.006Z,20.31
2022-11-03T18:30:18.944Z,20.24
2022-11-03T18:35:01.900Z,20.16
2022-11-03T18:39:44.889Z,20.11
2022-11-03T18:44:27.849Z,20.21
2022-11-03T18:49:11.014Z,20.29
2022-11-03T18:53:54.352Z,20.35
2022-11-03T18:58:37.287Z,20.42
2022-11-03T19:03:20.248Z,20.35
2022-11-03T19:08:03.176Z,20.21
2022-11-03T19:12:47.046Z,20.22
2022-11-03T19:17:29.993Z,20.21
2022-11-03T19:22:12.951Z,20.1
2022-11-03T19:26:56.480Z,20
2022-11-03T19:31:39.442Z,20.04
2022-11-03T19:36:22.411Z,20.03
2022-11-03T19:41:05.352Z,20.02
2022-11-03T19:45:48.303Z,19.94
2022-11-03T19:50:31.255Z,19.92
2022-11-03T19:55:14.198Z,19.99
2022-11-03T19:59:57.150Z,20.04
2022-11-03T20:04:40.470Z,20.05
2022-11-03T20:09:23.488Z,20.05
2022-11-03T20:14:06.646Z,19.94
2022-11-03T20:18:49.598Z,19.81
2022-11-03T20:23:35.595Z,19.75
2022-11-03T20:28:18.509Z,19.7
2022-11-03T20:33:01.453Z,19.7
2022-11-03T20:37:44.387Z,19.68
2022-11-03T20:42:27.306Z,19.67
2022-11-03T20:47:10.303Z,19.65
2022-11-03T20:51:53.232Z,19.65
2022-11-03T20:56:36.161Z,19.64
2022-11-03T21:01:19.211Z,19.63
2022-11-03T21:06:02.700Z,19.63
2022-11-03T21:10:45.662Z,19.65
2022-11-03T21:15:30.567Z,19.62
2022-11-03T21:20:13.683Z,19.57
2022-11-03T21:24:56.614Z,19.52
2022-11-03T21:29:58.195Z,19.48
2022-11-03T21:34:42.422Z,19.41
2022-11-03T21:39:25.333Z,19.39
2022-11-03T21:44:08.262Z,19.37
2022-11-03T21:48:51.196Z,19.36
2022-11-03T21:53:34.129Z,19.32
2022-11-03T21:58:17.025Z,19.29
2022-11-03T22:02:59.981Z,19.26
2022-11-03T22:07:43.102Z,19.26
2022-11-03T22:12:26.050Z,19.26
2022-11-03T22:17:09.041Z,19.25
2022-11-03T22:21:52.064Z,19.23
2022-11-03T22:26:35.094Z,19.2
2022-11-03T22:31:18.059Z,19.18
2022-11-03T22:36:01.004Z,19.17
2022-11-03T22:40:43.963Z,19.18
2022-11-03T22:45:26.909Z,19.18
2022-11-03T22:50:09.852Z,19.17
2022-11-03T22:54:52.809Z,19.14
2022-11-03T22:59:35.771Z,19.14
2022-11-03T23:04:18.720Z,19.12
2022-11-03T23:09:01.768Z,19.09
2022-11-03T23:13:44.882Z,19.07
2022-11-03T23:18:28.043Z,19.06
2022-11-03T23:23:11.238Z,19.04
2022-11-03T23:27:54.315Z,19.03
2022-11-03T23:32:37.355Z,19.02
2022-11-03T23:37:20.622Z,18.98
2022-11-03T23:42:03.603Z,18.97
2022-11-03T23:46:46.537Z,18.94
2022-11-03T23:51:29.501Z,18.95
2022-11-03T23:56:12.442Z,18.95
